Home   Weather   Germany   Plauen   Past weeks
Flag for Germany

Past Weather in Plauen, Saxony, Germany — Yesterday and Last 2 Weeks

Currently: 64 °F. Sunny. (Weather station: Hof Airport, Germany). See more current weather

Past Weather in Plauen — Graph

°F

Plauen Temperature Yesterday

Maximum temperature yesterday: 81 °F (at 4:20 pm)
Minimum temperature yesterday: 54 °F (at 3:50 am)
Average temperature yesterday: 68 °F

High & Low Weather Summary for the Past Weeks

 TemperatureHumidityPressure
High91 °F (Aug 4, 2:20 pm)100% (Jul 30, 4:20 am)30.36 "Hg (Jul 30, 4:20 am)
Low46 °F (Aug 7, 5:20 am)25% (Aug 3, 3:20 pm)29.95 "Hg (Aug 5, 5:20 am)
Average67 °F56%30.15 "Hg
* Reported Jul 28 7:20 am — Aug 12 7:50 am, Plauen. Weather by CustomWeather, © 2022

Note: Actual official high and low records may vary slightly from our data, if they occured in-between our weather recording intervals... More about our weather records

Plauen Weather History for the Previous 24 Hours

Scroll right to see more
 ConditionsComfort  
Time TempWeatherWind HumidityBarometerVisibility
7:50 am
Fri, Aug 12
61 °FSunny.2 mph52%30.18 "Hg10 mi
7:20 am59 °FSunny.3 mph55%30.18 "Hg10 mi
6:50 am54 °FSunny.3 mph67%30.18 "Hg10 mi
6:20 am54 °FSunny.3 mph67%30.18 "HgN/A
5:50 am54 °FClear.3 mph67%30.18 "HgN/A
5:20 am52 °FClear.2 mph72%30.18 "HgN/A
4:50 am52 °FClear.3 mph72%30.18 "HgN/A
4:20 am54 °FClear.2 mph67%30.18 "HgN/A
3:50 am54 °FClear.2 mph67%30.18 "HgN/A
3:20 am57 °FClear.1 mph59%30.18 "HgN/A
2:50 am57 °FClear.3 mph59%30.18 "HgN/A
1:20 am59 °FClear.2 mph55%30.21 "HgN/A
12:50 am61 °FClear.2 mph52%30.21 "HgN/A
12:20 am63 °FClear.3 mph49%30.21 "HgN/A
11:20 pm
Thu, Aug 11
63 °FClear.3 mph49%30.21 "HgN/A
10:50 pm64 °FClear.3 mph43%30.21 "HgN/A
10:20 pm66 °FClear.6 mph37%30.18 "HgN/A
9:50 pm68 °FClear.5 mph35%30.18 "HgN/A
9:20 pm70 °FClear.6 mph33%30.18 "HgN/A
8:50 pm72 °FClear.7 mph31%30.18 "HgN/A
8:20 pm73 °FSunny.6 mph31%30.18 "HgN/A
7:50 pm75 °FPassing clouds.9 mph31%30.18 "HgN/A
7:20 pm75 °FPassing clouds.9 mph31%30.15 "HgN/A
6:50 pm77 °FPassing clouds.9 mph30%30.15 "HgN/A
6:20 pm77 °FPassing clouds.9 mph30%30.15 "HgN/A
5:50 pm79 °FPassing clouds.9 mph28%30.18 "HgN/A
5:20 pm79 °FPassing clouds.9 mph28%30.18 "HgN/A
4:50 pm79 °FPassing clouds.9 mph28%30.18 "HgN/A
4:20 pm81 °FPassing clouds.8 mph26%30.18 "HgN/A
2:50 pm79 °FPassing clouds.10 mph30%30.21 "HgN/A
2:20 pm77 °FPassing clouds.8 mph30%30.21 "HgN/A
1:50 pm79 °FSunny.8 mph30%30.24 "Hg10 mi
1:20 pm77 °FPassing clouds.10 mph32%30.24 "HgN/A
12:50 pm77 °FPassing clouds.9 mph32%30.24 "HgN/A
12:20 pm75 °FPassing clouds.10 mph31%30.24 "HgN/A
11:50 am75 °FPassing clouds.12 mph34%30.24 "HgN/A
11:20 am75 °FSunny.10 mph34%30.27 "Hg10 mi
10:50 am75 °FPassing clouds.14 mph36%30.27 "HgN/A
10:20 am73 °FSunny.14 mph36%30.27 "Hg10 mi
9:50 am70 °FPassing clouds.6 mph46%30.27 "HgN/A
Weather by CustomWeather, © 2022

See weather overview